Time;durP1;ratioP1;P1;durP2;ratioP2;P2;SDS_P1;SDS_P2;PMS_P1;PMS_P2;Temp;Humidity;BMP_temperature;BMP_pressure;BME280_temperature;BME280_humidity;BME280_pressure;Samples;Min_cycle;Max_cycle;Signal;HPM_P1;HPM_P2
2021/12/05 00:19:12;;;;;;;38.25;20.92;;;2.30;99.90;;;;;;5082656;28;20039;-74
2021/12/05 00:21:55;;;;;;;39.63;19.05;;;2.30;99.90;;;;;;5067720;22;20049;-69
2021/12/05 00:24:24;;;;;;;38.72;20.90;;;2.40;99.90;;;;;;5034204;28;20026;-69
2021/12/05 00:26:58;;;;;;;41.47;21.33;;;2.50;99.90;;;;;;5032478;28;20029;-69
2021/12/05 00:29:31;;;;;;;58.43;25.77;;;2.40;99.90;;;;;;5033879;28;20029;-69
2021/12/05 00:40:29;;;;;;;37.72;19.88;;;2.30;99.90;;;;;;5033790;28;20036;-68
2021/12/05 00:43:14;;;;;;;37.70;19.48;;;2.30;99.90;;;;;;5031704;28;20399;-71
2021/12/05 00:48:20;;;;;;;44.33;21.30;;;2.30;99.90;;;;;;5033298;28;20018;-68
2021/12/05 00:56:06;;;;;;;;;;;2.20;99.90;;;;;;5033679;28;20442;-67
2021/12/05 01:04:12;;;;;;;36.83;19.00;;;2.20;99.90;;;;;;5032709;28;20064;-70
2021/12/05 01:16:43;;;;;;;37.33;18.95;;;2.60;99.90;;;;;;5021440;28;20021;-70
2021/12/05 01:19:12;;;;;;;27.23;16.73;;;2.30;99.90;;;;;;5029664;28;20017;-69
2021/12/05 01:21:39;;;;;;;31.90;17.63;;;2.20;99.90;;;;;;5030106;28;20573;-69
2021/12/05 01:27:12;;;;;;;34.13;18.38;;;2.30;99.90;;;;;;5031775;28;20064;-71
2021/12/05 01:29:57;;;;;;;28.13;17.05;;;2.30;99.90;;;;;;5031327;28;20108;-69
2021/12/05 01:32:39;;;;;;;36.10;18.80;;;2.30;99.90;;;;;;5032024;28;20033;-70
2021/12/05 01:35:11;;;;;;;27.98;17.98;;;2.30;99.90;;;;;;5032182;28;20029;-70
2021/12/05 01:38:55;;;;;;;36.38;18.42;;;2.40;99.90;;;;;;5032321;28;20021;-69
2021/12/05 01:59:38;;;;;;;35.05;18.58;;;2.50;99.90;;;;;;4970630;28;20198;-72
2021/12/05 02:42:35;;;;;;;36.55;18.33;;;2.50;99.90;;;;;;5029616;28;20508;-70
2021/12/05 02:45:04;;;;;;;39.20;19.08;;;2.60;99.90;;;;;;5030954;28;20033;-70
2021/12/05 02:47:31;;;;;;;39.30;20.73;;;2.60;99.90;;;;;;5030814;28;20022;-68
2021/12/05 02:49:59;;;;;;;42.13;21.05;;;2.60;99.90;;;;;;5031265;28;20037;-70
2021/12/05 02:52:33;;;;;;;37.67;20.17;;;2.50;99.90;;;;;;5030583;28;20022;-68
2021/12/05 02:55:04;;;;;;;;;;;2.60;99.90;;;;;;5031779;28;20030;-70
2021/12/05 03:00:14;;;;;;;34.40;19.90;;;3.00;99.90;;;;;;5031019;28;20025;-69
2021/12/05 03:02:43;;;;;;;37.05;20.08;;;2.70;99.90;;;;;;5030582;28;20026;-69
2021/12/05 03:05:14;;;;;;;39.45;21.20;;;2.70;99.90;;;;;;5031306;28;20103;-72
2021/12/05 03:07:42;;;;;;;42.13;22.35;;;2.30;99.90;;;;;;5019122;28;20028;-71
2021/12/05 03:10:10;;;;;;;40.92;20.70;;;2.50;99.90;;;;;;5034890;28;20099;-71
2021/12/05 03:12:38;;;;;;;44.63;21.52;;;2.50;99.90;;;;;;5034238;28;20025;-70
2021/12/05 03:15:08;;;;;;;52.97;22.40;;;2.50;99.90;;;;;;5034744;28;20056;-70
2021/12/05 03:17:34;;;;;;;48.28;23.13;;;2.50;99.90;;;;;;5034656;28;20053;-70
2021/12/05 03:19:59;;;;;;;48.90;23.02;;;2.40;99.90;;;;;;5033393;28;20079;-69
2021/12/05 03:22:25;;;;;;;47.00;23.30;;;2.40;99.90;;;;;;5033739;28;20029;-69
2021/12/05 03:24:51;;;;;;;49.97;23.85;;;2.50;99.90;;;;;;5034405;28;20037;-70
2021/12/05 03:27:17;;;;;;;47.80;22.67;;;2.50;99.90;;;;;;5034258;28;20037;-69
2021/12/05 03:29:42;;;;;;;51.60;23.27;;;2.50;99.90;;;;;;5034354;28;20083;-71
2021/12/05 03:32:08;;;;;;;49.88;23.10;;;2.60;99.90;;;;;;5033853;28;20032;-72
2021/12/05 03:34:34;;;;;;;44.38;21.98;;;2.60;99.90;;;;;;5033811;28;20037;-70
2021/12/05 03:37:00;;;;;;;47.05;22.40;;;2.60;99.90;;;;;;5033410;28;20021;-70
2021/12/05 03:39:27;;;;;;;46.33;22.20;;;2.60;99.90;;;;;;5034248;28;20104;-70
2021/12/05 03:41:55;;;;;;;48.28;23.98;;;2.60;99.90;;;;;;5033734;28;20021;-70
2021/12/05 03:44:24;;;;;;;41.47;22.48;;;2.50;99.90;;;;;;5033896;28;20026;-69
2021/12/05 03:46:51;;;;;;;48.38;23.65;;;2.60;99.90;;;;;;5034259;28;20013;-70
2021/12/05 03:49:17;;;;;;;53.80;24.02;;;2.60;99.90;;;;;;5033913;28;20404;-70
2021/12/05 03:52:06;;;;;;;47.47;23.90;;;2.70;99.90;;;;;;5032744;28;20022;-70
2021/12/05 03:54:32;;;;;;;58.40;25.40;;;2.70;99.90;;;;;;5033641;28;20477;-70
2021/12/05 03:56:59;;;;;;;51.72;23.40;;;2.70;99.90;;;;;;5034124;28;20041;-71
2021/12/05 03:59:28;;;;;;;55.20;25.73;;;2.70;99.90;;;;;;5033443;28;20045;-70
2021/12/05 04:01:54;;;;;;;56.22;26.10;;;2.60;99.90;;;;;;5033837;28;20443;-70
2021/12/05 04:04:20;;;;;;;60.33;26.67;;;2.60;99.90;;;;;;5034087;28;20021;-70
2021/12/05 04:06:47;;;;;;;53.92;25.63;;;2.60;99.90;;;;;;5033873;28;20446;-70
2021/12/05 04:09:14;;;;;;;59.70;26.38;;;2.60;99.90;;;;;;5033982;28;20418;-70
2021/12/05 04:11:46;;;;;;;59.05;26.33;;;2.60;99.90;;;;;;5033341;28;20079;-72
2021/12/05 04:14:14;;;;;;;58.70;25.92;;;2.70;99.90;;;;;;5033507;28;20060;-70
2021/12/05 04:16:43;;;;;;;56.53;24.77;;;2.70;99.90;;;;;;5032615;28;20545;-71
2021/12/05 04:19:08;;;;;;;55.35;26.63;;;2.70;99.90;;;;;;5033314;28;20013;-72
2021/12/05 04:21:36;;;;;;;66.90;27.63;;;2.70;99.90;;;;;;5033507;28;20458;-70
2021/12/05 04:24:04;;;;;;;60.90;27.63;;;2.70;99.90;;;;;;5031640;28;20030;-69
2021/12/05 04:26:30;;;;;;;57.22;26.23;;;2.80;99.90;;;;;;5033004;28;20038;-69
2021/12/05 04:28:55;;;;;;;55.40;25.70;;;2.70;99.90;;;;;;5033516;28;20108;-69
2021/12/05 04:31:21;;;;;;;50.65;25.63;;;2.90;99.90;;;;;;5033125;28;20085;-70
2021/12/05 04:33:49;;;;;;;47.03;23.08;;;2.80;99.90;;;;;;5033142;28;20532;-71
2021/12/05 04:36:15;;;;;;;53.50;25.52;;;2.80;99.90;;;;;;5033588;28;20029;-69
2021/12/05 04:38:41;;;;;;;51.15;25.25;;;2.80;99.90;;;;;;5033501;28;20036;-69
2021/12/05 04:41:07;;;;;;;56.22;27.08;;;2.80;99.90;;;;;;5033484;28;20471;-70
2021/12/05 04:43:37;;;;;;;61.80;27.30;;;2.80;99.90;;;;;;5039073;28;20034;-70
2021/12/05 04:46:15;;;;;;;67.60;26.40;;;2.80;99.90;;;;;;5039829;28;20017;-69
2021/12/05 04:48:44;;;;;;;52.45;25.50;;;2.80;99.90;;;;;;5038326;28;20100;-70
2021/12/05 04:51:10;;;;;;;56.13;25.42;;;2.80;99.90;;;;;;5038245;28;20556;-70
2021/12/05 04:53:36;;;;;;;54.95;26.83;;;2.90;99.90;;;;;;5035549;28;20029;-70
2021/12/05 04:56:02;;;;;;;52.80;26.55;;;2.90;99.90;;;;;;5035594;28;20412;-68
2021/12/05 04:58:28;;;;;;;56.90;25.27;;;2.90;99.90;;;;;;5035791;28;20044;-72
2021/12/05 05:00:57;;;;;;;56.70;26.95;;;2.90;99.90;;;;;;5034034;28;20014;-70
2021/12/05 05:03:23;;;;;;;58.90;26.40;;;2.90;99.90;;;;;;5032804;28;20018;-70
2021/12/05 05:05:54;;;;;;;57.10;25.45;;;2.80;99.90;;;;;;5032609;28;20033;-70
2021/12/05 05:08:20;;;;;;;51.17;25.75;;;2.90;99.90;;;;;;5031879;28;20026;-69
2021/12/05 05:10:47;;;;;;;64.10;27.25;;;2.90;99.90;;;;;;5032705;28;20037;-68
2021/12/05 05:13:13;;;;;;;61.10;25.33;;;2.90;99.90;;;;;;5032672;28;20061;-69
2021/12/05 05:15:39;;;;;;;59.92;26.27;;;2.90;99.90;;;;;;5032244;28;20067;-69
2021/12/05 05:18:06;;;;;;;63.97;25.90;;;3.10;99.90;;;;;;5032767;28;20021;-69
2021/12/05 05:47:27;;;;;;;54.80;25.08;;;3.00;99.90;;;;;;5031968;28;20510;-69
2021/12/05 05:50:01;;;;;;;62.95;26.58;;;3.10;99.90;;;;;;5032019;28;20410;-68
2021/12/05 05:52:29;;;;;;;55.30;25.08;;;3.00;99.90;;;;;;5031505;28;20030;-67
2021/12/05 05:54:58;;;;;;;52.35;25.40;;;3.10;99.90;;;;;;5031538;28;20032;-68
2021/12/05 05:57:27;;;;;;;56.67;24.48;;;3.10;99.90;;;;;;5030652;28;20510;-68
2021/12/05 06:00:12;;;;;;;64.13;27.20;;;3.10;99.90;;;;;;5031410;28;20049;-69
2021/12/05 06:05:23;;;;;;;54.97;24.65;;;3.10;99.90;;;;;;5031918;28;20045;-68
2021/12/05 06:07:48;;;;;;;63.22;24.45;;;3.20;99.90;;;;;;5032220;28;20029;-66
2021/12/05 06:10:21;;;;;;;59.80;25.98;;;3.00;99.90;;;;;;5031922;28;20028;-69
2021/12/05 06:12:47;;;;;;;64.65;27.75;;;3.20;99.90;;;;;;5031445;28;20053;-68
2021/12/05 06:15:15;;;;;;;65.35;28.27;;;3.20;99.90;;;;;;5031896;28;20025;-69
2021/12/05 06:17:41;;;;;;;69.03;28.35;;;3.20;99.90;;;;;;5031138;28;20060;-68
2021/12/05 06:20:10;;;;;;;66.55;29.10;;;2.90;99.90;;;;;;5030602;28;20029;-68
2021/12/05 06:22:36;;;;;;;71.13;28.42;;;;;;;;;;5059091;23;20068;-74
2021/12/05 06:25:03;;;;;;;70.40;29.52;;;3.20;99.90;;;;;;5039135;28;20091;-76
2021/12/05 06:27:30;;;;;;;72.38;32.20;;;3.20;99.90;;;;;;5052768;28;20022;-73
2021/12/05 06:30:06;;;;;;;69.32;29.92;;;3.20;99.90;;;;;;5049913;28;20254;-74
2021/12/05 06:46:01;;;;;;;87.18;34.50;;;3.70;99.90;;;;;;4997092;28;20510;-74
2021/12/05 06:48:27;;;;;;;86.32;33.20;;;3.10;99.90;;;;;;5020642;28;20422;-75
2021/12/05 06:50:52;;;;;;;87.57;33.78;;;3.10;99.90;;;;;;5035385;28;20078;-74
2021/12/05 06:53:18;;;;;;;85.68;33.17;;;3.10;99.90;;;;;;5034950;28;20022;-73
2021/12/05 06:55:43;;;;;;;82.85;33.70;;;3.20;99.90;;;;;;5034778;28;20535;-74
2021/12/05 06:58:09;;;;;;;86.70;34.85;;;3.20;99.90;;;;;;5034726;28;20053;-73
2021/12/05 07:00:35;;;;;;;80.55;34.30;;;3.20;99.90;;;;;;5034949;28;20037;-74
2021/12/05 07:03:00;;;;;;;82.93;35.33;;;3.10;99.90;;;;;;5034436;28;20038;-74
2021/12/05 07:05:41;;;;;;;92.80;34.67;;;3.20;99.90;;;;;;5036239;28;20493;-73
2021/12/05 07:08:08;;;;;;;82.00;33.30;;;3.20;99.90;;;;;;4339212;28;10000801;-72
2021/12/05 07:10:44;;;;;;;87.30;34.83;;;3.20;99.90;;;;;;5032041;28;20152;-73
2021/12/05 07:13:54;;;;;;;80.47;32.67;;;3.20;99.90;;;;;;5031195;28;20026;-72
2021/12/05 07:16:19;;;;;;;89.35;35.97;;;3.20;99.90;;;;;;5031319;28;20163;-72
2021/12/05 07:27:10;;;;;;;89.00;32.97;;;3.20;99.90;;;;;;5029958;28;20101;-72
2021/12/05 07:40:37;;;;;;;85.22;34.40;;;3.30;99.90;;;;;;5051429;28;20044;-73
2021/12/05 07:43:08;;;;;;;74.32;30.65;;;3.30;99.90;;;;;;5050523;28;20471;-70
2021/12/05 07:45:43;;;;;;;80.07;33.30;;;3.30;99.90;;;;;;5034187;28;20049;-73
2021/12/05 07:48:16;;;;;;;89.75;33.50;;;3.30;99.90;;;;;;5034771;28;20407;-70
2021/12/05 07:51:01;;;;;;;79.40;31.90;;;3.40;99.90;;;;;;5016261;28;20083;-73
2021/12/05 07:53:43;;;;;;;84.65;31.98;;;3.20;99.90;;;;;;4996043;28;20025;-73
2021/12/05 07:56:16;;;;;;;82.15;33.28;;;3.00;99.90;;;;;;5051650;28;20393;-72
2021/12/05 08:15:27;;;;;;;80.78;33.10;;;3.10;99.90;;;;;;5033874;28;20043;-71
2021/12/05 08:17:57;;;;;;;88.65;33.67;;;;;;;;;;5016149;28;20057;-72
2021/12/05 08:20:35;;;;;;;90.47;34.65;;;3.00;99.90;;;;;;5033492;28;20018;-71
2021/12/05 08:23:02;;;;;;;86.50;34.10;;;3.30;99.90;;;;;;5033100;28;20033;-71
2021/12/05 08:25:31;;;;;;;86.75;35.15;;;3.30;99.90;;;;;;5033621;28;20490;-71
2021/12/05 08:28:21;;;;;;;85.43;34.92;;;3.20;99.90;;;;;;5034442;28;20036;-70
2021/12/05 08:30:57;;;;;;;91.50;36.42;;;4.20;99.90;;;;;;5033360;28;20033;-71
2021/12/05 08:42:01;;;;;;;81.05;35.38;;;3.70;99.90;;;;;;4999094;28;20045;-72
2021/12/05 09:30:59;;;;;;;92.05;37.67;;;3.50;99.90;;;;;;5032318;28;20048;-71
2021/12/05 10:06:43;;;;;;;95.93;38.67;;;4.20;99.90;;;;;;5031547;28;20036;-71
2021/12/05 10:17:21;;;;;;;94.27;37.43;;;4.00;99.90;;;;;;5031150;28;20055;-70
2021/12/05 10:37:24;;;;;;;92.72;37.42;;;4.20;99.90;;;;;;4957865;28;20485;-72
2021/12/05 10:40:06;;;;;;;94.75;38.35;;;4.20;99.90;;;;;;4994258;28;20025;-71
2021/12/05 10:42:44;;;;;;;87.75;36.28;;;4.30;99.90;;;;;;5011839;28;20051;-73
2021/12/05 10:45:42;;;;;;;99.97;38.55;;;4.40;99.90;;;;;;5030769;28;20029;-72
2021/12/05 10:48:20;;;;;;;96.90;38.15;;;4.50;99.90;;;;;;5031432;28;20049;-71
2021/12/05 10:50:50;;;;;;;88.60;35.85;;;4.50;99.90;;;;;;5031242;28;20025;-71
2021/12/05 10:53:33;;;;;;;98.63;39.28;;;4.60;99.90;;;;;;5029849;28;20032;-70
2021/12/05 10:56:07;;;;;;;102.82;38.10;;;4.50;99.90;;;;;;5029123;28;20028;-68
2021/12/05 10:58:55;;;;;;;96.35;37.80;;;4.40;99.90;;;;;;5025496;28;20411;-70
2021/12/05 11:01:29;;;;;;;93.75;38.58;;;4.40;99.90;;;;;;5015291;28;20175;-70
2021/12/05 11:04:09;;;;;;;98.03;38.17;;;4.30;99.90;;;;;;5005825;28;20116;-72
2021/12/05 11:06:52;;;;;;;101.07;39.03;;;4.20;99.90;;;;;;4317390;28;10000712;-70
2021/12/05 11:09:27;;;;;;;91.82;36.58;;;4.20;99.90;;;;;;5027296;28;20551;-70
2021/12/05 11:12:00;;;;;;;95.43;35.92;;;4.20;99.90;;;;;;5027920;28;20075;-73
2021/12/05 11:14:37;;;;;;;97.68;39.33;;;4.20;99.90;;;;;;5027503;28;20029;-70
2021/12/05 11:17:16;;;;;;;96.13;38.30;;;4.20;99.90;;;;;;5028123;28;20028;-70
2021/12/05 11:19:44;;;;;;;103.15;39.65;;;4.20;99.90;;;;;;5025684;28;20529;-73
2021/12/05 11:22:21;;;;;;;94.18;36.85;;;4.30;99.90;;;;;;5025947;28;20041;-72
2021/12/05 11:24:51;;;;;;;101.32;39.13;;;4.30;99.90;;;;;;4680746;28;10000331;-72
2021/12/05 11:27:44;;;;;;;94.95;38.92;;;4.30;99.90;;;;;;5025224;28;20036;-73
2021/12/05 11:30:17;;;;;;;100.88;39.90;;;4.30;99.90;;;;;;5030766;28;20065;-71
2021/12/05 11:32:51;;;;;;;92.70;37.50;;;4.20;99.90;;;;;;5030495;28;20079;-71
2021/12/05 11:35:31;;;;;;;98.75;39.45;;;4.50;99.90;;;;;;5036952;28;20451;-70
2021/12/05 11:38:07;;;;;;;96.38;39.67;;;4.30;99.90;;;;;;5029324;28;20549;-71
2021/12/05 11:40:42;;;;;;;105.57;41.45;;;4.30;99.90;;;;;;5033052;28;20043;-71
2021/12/05 11:43:09;;;;;;;94.68;37.58;;;4.30;99.90;;;;;;5016742;28;20421;-69
2021/12/05 11:46:00;;;;;;;104.03;40.72;;;4.20;99.90;;;;;;5034536;28;20033;-73
2021/12/05 11:48:42;;;;;;;101.38;39.85;;;4.20;99.90;;;;;;5027992;28;20034;-71
2021/12/05 11:51:32;;;;;;;104.35;39.17;;;4.20;99.90;;;;;;5016790;28;20029;-70
2021/12/05 11:54:15;;;;;;;97.60;38.20;;;4.30;99.90;;;;;;5038058;28;20080;-69
2021/12/05 11:56:50;;;;;;;102.75;40.60;;;4.30;99.90;;;;;;5033636;28;20117;-71
2021/12/05 11:59:31;;;;;;;94.00;37.88;;;4.30;99.90;;;;;;5034299;28;20056;-71
2021/12/05 12:02:14;;;;;;;102.25;39.80;;;4.90;99.90;;;;;;5033034;28;20040;-72
2021/12/05 12:04:48;;;;;;;114.00;45.10;;;4.30;99.90;;;;;;5016565;28;20439;-72
2021/12/05 12:07:36;;;;;;;123.05;47.53;;;4.30;99.90;;;;;;5033711;28;20036;-72
2021/12/05 12:10:13;;;;;;;105.55;42.22;;;4.30;99.90;;;;;;5033783;28;20448;-71
2021/12/05 12:12:41;;;;;;;106.22;41.45;;;4.30;99.90;;;;;;5015530;28;20079;-72
2021/12/05 12:15:08;;;;;;;102.63;41.63;;;4.30;99.90;;;;;;5033620;28;20053;-69
2021/12/05 12:17:33;;;;;;;106.57;41.05;;;4.30;99.90;;;;;;5032882;28;20056;-69
2021/12/05 12:19:59;;;;;;;112.30;43.38;;;4.30;99.90;;;;;;5033530;28;20475;-71
2021/12/05 12:22:27;;;;;;;106.82;42.03;;;4.30;99.90;;;;;;5069408;22;20094;-69
2021/12/05 12:25:08;;;;;;;102.22;41.22;;;4.20;99.90;;;;;;5045682;28;20022;-69
2021/12/05 12:27:34;;;;;;;111.18;42.85;;;4.20;99.90;;;;;;5042121;28;20030;-69
2021/12/05 12:30:04;;;;;;;110.97;43.42;;;4.20;99.90;;;;;;5038108;28;20117;-68
2021/12/05 12:32:36;;;;;;;101.57;40.83;;;4.20;99.90;;;;;;5039314;28;20519;-67
2021/12/05 12:35:10;;;;;;;100.13;41.00;;;4.30;99.90;;;;;;5027597;28;20080;-69
2021/12/05 12:38:00;;;;;;;106.60;42.45;;;4.30;99.90;;;;;;5019475;28;20045;-70
2021/12/05 12:40:38;;;;;;;100.22;40.42;;;4.40;99.90;;;;;;5015336;28;20033;-69
2021/12/05 12:43:07;;;;;;;96.93;40.63;;;4.40;99.90;;;;;;5027445;28;20108;-70
2021/12/05 12:45:41;;;;;;;101.30;38.92;;;4.40;99.90;;;;;;5030991;28;20033;-69
2021/12/05 12:48:16;;;;;;;98.60;39.30;;;4.40;99.90;;;;;;5022480;28;20488;-69
2021/12/05 12:50:51;;;;;;;103.55;41.67;;;4.30;99.90;;;;;;5030849;28;20025;-70
2021/12/05 12:53:27;;;;;;;105.10;41.72;;;4.30;99.90;;;;;;5024157;28;20048;-68
2021/12/05 12:56:00;;;;;;;102.28;44.17;;;4.40;99.90;;;;;;5025025;28;20025;-68
2021/12/05 12:58:37;;;;;;;105.45;43.67;;;4.30;99.90;;;;;;5029901;28;20022;-70
2021/12/05 13:01:30;;;;;;;96.60;40.10;;;5.00;99.90;;;;;;5019805;28;20060;-69
2021/12/05 13:04:49;;;;;;;95.57;36.72;;;4.40;99.90;;;;;;5030840;28;20211;-71
2021/12/05 13:12:49;;;;;;;93.38;37.42;;;4.50;99.90;;;;;;5022255;28;20136;-69
2021/12/05 13:15:33;;;;;;;100.40;37.85;;;4.50;99.90;;;;;;5027135;28;20022;-69
2021/12/05 13:18:23;;;;;;;92.77;37.73;;;4.50;99.90;;;;;;5019987;28;20029;-68
2021/12/05 13:20:57;;;;;;;85.45;35.30;;;4.50;99.90;;;;;;5025393;28;20048;-70
2021/12/05 13:23:40;;;;;;;92.93;37.30;;;4.50;99.90;;;;;;5016123;28;20056;-70
2021/12/05 13:26:20;;;;;;;85.50;35.50;;;4.50;99.90;;;;;;5025863;28;20041;-70
2021/12/05 13:28:51;;;;;;;96.07;39.90;;;4.50;99.90;;;;;;5012515;28;20028;-65
2021/12/05 13:31:29;;;;;;;90.93;37.15;;;4.40;99.90;;;;;;5024391;28;20026;-70
2021/12/05 13:34:33;;;;;;;99.78;38.95;;;4.40;99.90;;;;;;5016686;28;20022;-69
2021/12/05 13:36:58;;;;;;;93.55;36.85;;;4.40;99.90;;;;;;5030572;28;20033;-70
2021/12/05 13:39:52;;;;;;;99.95;40.15;;;4.40;99.90;;;;;;5029624;28;20522;-67
2021/12/05 13:42:42;;;;;;;99.82;39.28;;;4.40;99.90;;;;;;5016238;28;20044;-69
2021/12/05 13:45:22;;;;;;;99.15;40.08;;;4.30;99.90;;;;;;5011877;28;20064;-69
2021/12/05 13:47:51;;;;;;;98.72;42.55;;;4.40;99.90;;;;;;5027215;28;20475;-69
2021/12/05 13:50:23;;;;;;;93.97;39.47;;;4.40;99.90;;;;;;5029570;28;20037;-68
2021/12/05 13:53:18;;;;;;;96.93;40.97;;;4.40;99.90;;;;;;5027992;28;20032;-69
2021/12/05 13:55:56;;;;;;;91.57;38.00;;;4.40;99.90;;;;;;5021751;28;20121;-69
2021/12/05 13:58:32;;;;;;;95.95;37.65;;;4.30;99.90;;;;;;5027589;28;20022;-68
2021/12/05 14:01:15;;;;;;;98.78;37.65;;;4.70;99.90;;;;;;5027391;28;20104;-67
2021/12/05 14:04:01;;;;;;;96.47;38.50;;;4.50;99.90;;;;;;5026750;28;20017;-69
2021/12/05 14:06:29;;;;;;;91.93;38.08;;;4.50;99.90;;;;;;5020123;28;20052;-71
2021/12/05 14:09:00;;;;;;;94.90;38.22;;;4.40;99.90;;;;;;5031218;28;20550;-69
2021/12/05 14:11:28;;;;;;;101.82;39.70;;;4.30;99.90;;;;;;5023987;28;20480;-69
2021/12/05 14:13:53;;;;;;;101.20;41.45;;;4.30;99.90;;;;;;5022022;28;20030;-70
2021/12/05 14:16:20;;;;;;;100.45;39.13;;;4.20;99.90;;;;;;5014423;28;20444;-70
2021/12/05 14:18:46;;;;;;;94.85;38.88;;;4.10;99.90;;;;;;5014931;28;20029;-70
2021/12/05 14:21:18;;;;;;;96.72;40.63;;;4.20;99.90;;;;;;5015075;28;20053;-70
2021/12/05 14:23:51;;;;;;;106.35;42.92;;;4.10;99.90;;;;;;4329219;28;10000816;-71
2021/12/05 14:26:19;;;;;;;103.32;39.97;;;4.20;99.90;;;;;;5027799;28;20033;-66
2021/12/05 14:28:58;;;;;;;108.28;42.17;;;4.20;99.90;;;;;;5026695;28;20029;-68
2021/12/05 14:31:30;;;;;;;108.82;41.33;;;4.10;99.90;;;;;;5019200;28;20034;-68
2021/12/05 14:33:56;;;;;;;108.65;43.53;;;4.00;99.90;;;;;;5024883;28;20040;-68
2021/12/05 14:36:35;;;;;;;102.20;40.10;;;4.10;99.90;;;;;;5026394;28;20033;-69
2021/12/05 14:39:27;;;;;;;108.88;41.75;;;4.10;99.90;;;;;;5024415;28;20116;-71
2021/12/05 14:41:57;;;;;;;98.57;40.53;;;3.90;99.90;;;;;;5026783;28;20041;-70
2021/12/05 14:44:23;;;;;;;107.43;41.42;;;3.90;99.90;;;;;;5026500;28;20087;-70
2021/12/05 14:47:03;;;;;;;111.43;44.22;;;3.90;99.90;;;;;;5027018;28;20025;-69
2021/12/05 14:49:33;;;;;;;108.78;42.03;;;3.90;99.90;;;;;;5014769;28;20033;-69
2021/12/05 14:52:01;;;;;;;102.85;41.25;;;3.70;99.90;;;;;;5026449;28;20113;-68
2021/12/05 14:54:35;;;;;;;98.47;40.95;;;4.30;99.90;;;;;;5023949;28;20048;-69
2021/12/05 14:57:09;;;;;;;94.80;38.67;;;3.80;99.90;;;;;;5023845;28;20064;-69
2021/12/05 14:59:35;;;;;;;98.68;39.50;;;3.90;99.90;;;;;;5027071;28;20026;-70
2021/12/05 15:02:01;;;;;;;93.18;39.20;;;4.40;99.90;;;;;;5026962;28;20157;-69
2021/12/05 15:04:35;;;;;;;104.30;41.20;;;3.80;99.90;;;;;;5030890;28;20565;-68
2021/12/05 15:07:01;;;;;;;91.78;36.22;;;3.90;99.90;;;;;;5031125;28;20404;-69
2021/12/05 15:09:37;;;;;;;101.35;38.85;;;3.80;99.90;;;;;;5031245;28;20083;-67
2021/12/05 15:12:16;;;;;;;96.32;37.88;;;3.80;99.90;;;;;;5026466;28;20361;-69
2021/12/05 15:14:44;;;;;;;91.65;38.10;;;3.80;99.90;;;;;;5030702;28;20033;-71
2021/12/05 15:17:18;;;;;;;94.75;37.88;;;3.80;99.90;;;;;;5031385;28;20395;-68
2021/12/05 15:19:47;;;;;;;94.55;36.38;;;3.70;99.90;;;;;;5031393;28;20032;-67
2021/12/05 15:22:14;;;;;;;93.90;38.67;;;3.80;99.90;;;;;;5012237;28;20033;-65
2021/12/05 15:24:48;;;;;;;101.95;39.50;;;3.80;99.90;;;;;;5029590;28;20029;-69
2021/12/05 15:27:16;;;;;;;92.10;37.47;;;3.70;99.90;;;;;;5030313;28;20022;-72
2021/12/05 15:29:55;;;;;;;100.88;39.13;;;3.70;99.90;;;;;;5027124;28;20033;-69
2021/12/05 15:32:27;;;;;;;102.60;38.78;;;3.70;99.90;;;;;;5023218;28;20483;-69
2021/12/05 15:35:01;;;;;;;100.40;38.50;;;3.80;99.90;;;;;;5026594;28;20120;-69
2021/12/05 15:37:27;;;;;;;93.15;37.08;;;3.80;99.90;;;;;;5030851;28;20462;-69
2021/12/05 15:39:55;;;;;;;100.30;37.95;;;3.70;99.90;;;;;;5026362;28;20067;-70
2021/12/05 15:42:25;;;;;;;100.10;37.10;;;3.80;99.90;;;;;;5030827;28;20575;-69
2021/12/05 15:44:54;;;;;;;97.57;38.33;;;3.90;99.90;;;;;;5030450;28;20352;-70
2021/12/05 15:47:23;;;;;;;100.15;39.00;;;3.90;99.90;;;;;;5030332;28;20406;-69
2021/12/05 15:50:19;;;;;;;103.72;38.92;;;3.90;99.90;;;;;;5030413;28;20026;-70
2021/12/05 15:52:55;;;;;;;103.60;38.65;;;3.90;99.90;;;;;;5026019;28;20104;-71
2021/12/05 15:55:26;;;;;;;95.75;39.40;;;3.80;99.90;;;;;;5016965;28;20065;-69
2021/12/05 15:58:07;;;;;;;107.60;41.95;;;3.80;99.90;;;;;;5025628;28;20470;-70
2021/12/05 16:00:43;;;;;;;99.15;40.40;;;3.80;99.90;;;;;;5018276;28;20028;-70
2021/12/05 16:03:17;;;;;;;100.25;39.55;;;3.80;99.90;;;;;;5013157;28;20026;-70
2021/12/05 16:05:46;;;;;;;107.15;42.28;;;3.80;99.90;;;;;;5015019;28;20033;-69
2021/12/05 16:08:16;;;;;;;102.95;41.92;;;3.70;99.90;;;;;;5029804;28;20124;-69
2021/12/05 16:10:47;;;;;;;109.55;40.90;;;3.80;99.90;;;;;;5030963;28;20486;-70
2021/12/05 16:13:18;;;;;;;110.43;41.33;;;3.70;99.90;;;;;;5029941;28;20492;-70
2021/12/05 16:15:46;;;;;;;109.22;40.90;;;5.20;99.90;;;;;;5030528;28;20446;-68
2021/12/05 16:18:12;;;;;;;110.80;42.13;;;3.70;99.90;;;;;;5030357;28;20037;-69
2021/12/05 16:20:45;;;;;;;120.55;44.72;;;3.70;99.90;;;;;;5031187;28;20099;-69
2021/12/05 16:23:22;;;;;;;110.07;39.85;;;3.70;99.90;;;;;;5028411;28;20030;-68
2021/12/05 16:26:09;;;;;;;115.40;42.38;;;3.70;99.90;;;;;;5025899;28;20106;-68
2021/12/05 16:28:40;;;;;;;113.93;43.45;;;3.70;99.90;;;;;;5013577;28;20025;-70
2021/12/05 16:31:12;;;;;;;102.88;39.40;;;3.70;99.90;;;;;;5028251;28;20026;-71
2021/12/05 16:33:38;;;;;;;113.22;41.33;;;3.60;99.90;;;;;;5030009;28;20049;-69
2021/12/05 16:36:06;;;;;;;117.88;43.88;;;3.60;99.90;;;;;;5028291;28;20044;-70
2021/12/05 16:38:34;;;;;;;122.35;44.67;;;3.60;99.90;;;;;;5029846;28;20036;-71
2021/12/05 16:41:18;;;;;;;118.40;44.25;;;3.60;99.90;;;;;;5023253;28;20549;-70
2021/12/05 16:43:55;;;;;;;116.63;46.28;;;3.60;99.90;;;;;;5010206;28;20018;-70
2021/12/05 16:46:28;;;;;;;115.78;43.88;;;3.70;99.90;;;;;;5016084;28;20407;-70
2021/12/05 16:48:58;;;;;;;113.15;42.45;;;3.70;99.90;;;;;;5024613;28;20487;-71
2021/12/05 16:51:34;;;;;;;119.03;42.97;;;3.70;99.90;;;;;;5030243;28;20228;-70
2021/12/05 16:54:24;;;;;;;115.50;43.38;;;3.70;99.90;;;;;;5029878;28;20033;-66
2021/12/05 16:56:51;;;;;;;114.13;41.90;;;3.70;99.90;;;;;;5024885;28;20571;-69
2021/12/05 16:59:29;;;;;;;110.55;38.63;;;3.70;99.90;;;;;;5029276;28;20119;-69
2021/12/05 17:02:19;;;;;;;116.05;41.97;;;3.80;99.90;;;;;;5026461;28;20032;-69
2021/12/05 17:04:50;;;;;;;105.78;40.92;;;3.70;99.90;;;;;;5030017;28;20052;-69
2021/12/05 17:07:38;;;;;;;125.55;42.85;;;3.70;99.90;;;;;;5022412;28;20030;-68
2021/12/05 17:10:11;;;;;;;116.78;42.38;;;3.70;99.90;;;;;;5010236;28;20068;-69
2021/12/05 17:12:37;;;;;;;110.57;42.38;;;3.70;99.90;;;;;;5017555;28;20084;-69
2021/12/05 17:15:33;;;;;;;121.00;43.28;;;3.70;99.90;;;;;;5028082;28;20319;-68
2021/12/05 17:18:04;;;;;;;111.22;41.70;;;3.60;99.90;;;;;;5016632;28;20045;-68
2021/12/05 17:20:43;;;;;;;128.82;45.15;;;3.70;99.90;;;;;;5028988;28;20021;-69
2021/12/05 17:23:23;;;;;;;116.68;42.22;;;3.70;99.90;;;;;;5028501;28;20052;-66
2021/12/05 17:25:53;;;;;;;123.32;41.72;;;3.70;99.90;;;;;;5023135;28;20044;-68
2021/12/05 17:28:29;;;;;;;119.13;40.72;;;3.70;99.90;;;;;;5029323;28;20025;-68
2021/12/05 17:30:58;;;;;;;125.57;45.50;;;3.70;99.90;;;;;;5028967;28;20036;-69
2021/12/05 17:33:53;;;;;;;116.47;41.20;;;3.70;99.90;;;;;;5024621;28;20045;-67
2021/12/05 17:36:41;;;;;;;122.70;46.05;;;3.70;99.90;;;;;;5015531;28;20067;-70
2021/12/05 17:39:06;;;;;;;123.05;42.58;;;3.70;99.90;;;;;;5017342;28;20045;-69
2021/12/05 17:41:33;;;;;;;129.23;43.42;;;3.60;99.90;;;;;;5012933;28;20044;-70
2021/12/05 17:44:01;;;;;;;122.30;42.85;;;3.50;99.90;;;;;;5022570;28;20033;-68
2021/12/05 17:46:28;;;;;;;133.27;44.22;;;3.60;99.90;;;;;;5028596;28;20723;-70
2021/12/05 17:48:54;;;;;;;125.75;43.20;;;3.60;99.90;;;;;;5026989;28;20045;-69
2021/12/05 17:51:21;;;;;;;133.23;45.17;;;3.60;99.90;;;;;;5026174;28;20037;-69
2021/12/05 17:53:49;;;;;;;129.50;45.00;;;3.60;99.90;;;;;;5028208;28;20045;-69
2021/12/05 17:56:25;;;;;;;129.82;43.83;;;3.60;99.90;;;;;;5027860;28;20026;-69
2021/12/05 17:59:04;;;;;;;131.65;45.80;;;3.60;99.90;;;;;;5021130;28;20049;-69
2021/12/05 18:04:15;;;;;;;123.35;44.80;;;1.20;99.90;;;;;;5029909;28;20056;-70
2021/12/05 18:06:41;;;;;;;128.05;46.10;;;3.60;99.90;;;;;;5029264;28;20022;-66
2021/12/05 18:09:06;;;;;;;129.77;45.25;;;3.60;99.90;;;;;;5018748;28;20038;-71
2021/12/05 18:11:35;;;;;;;128.13;46.13;;;3.60;99.90;;;;;;5015980;28;20353;-69
2021/12/05 18:14:01;;;;;;;127.10;45.40;;;3.60;99.90;;;;;;5030093;28;20423;-69
2021/12/05 18:16:27;;;;;;;128.57;45.30;;;3.70;99.90;;;;;;5029296;28;20039;-69
2021/12/05 18:18:57;;;;;;;138.48;48.72;;;3.70;99.90;;;;;;5029808;28;20513;-69